sensor_id;sensor_type;location;lat;lon;timestamp;temperature;humidity
11818;DHT22;5966;52.402;5.322;2022-08-21T00:01:53;17.10;99.90
11818;DHT22;5966;52.402;5.322;2022-08-21T00:04:22;17.00;99.90
11818;DHT22;5966;52.402;5.322;2022-08-21T00:06:55;17.00;99.90
11818;DHT22;5966;52.402;5.322;2022-08-21T00:09:23;17.00;99.90
11818;DHT22;5966;52.402;5.322;2022-08-21T00:11:51;17.00;99.90
11818;DHT22;5966;52.402;5.322;2022-08-21T00:14:21;16.90;99.90
11818;DHT22;5966;52.402;5.322;2022-08-21T00:16:49;16.90;99.90
11818;DHT22;5966;52.402;5.322;2022-08-21T00:19:18;16.90;99.90
11818;DHT22;5966;52.402;5.322;2022-08-21T00:21:47;16.80;99.90
11818;DHT22;5966;52.402;5.322;2022-08-21T00:24:15;16.80;99.90
11818;DHT22;5966;52.402;5.322;2022-08-21T00:26:43;16.80;99.90
11818;DHT22;5966;52.402;5.322;2022-08-21T00:29:11;16.80;99.90
11818;DHT22;5966;52.402;5.322;2022-08-21T00:31:44;16.80;99.90
11818;DHT22;5966;52.402;5.322;2022-08-21T00:34:13;16.80;99.90
11818;DHT22;5966;52.402;5.322;2022-08-21T00:36:41;16.70;99.90
11818;DHT22;5966;52.402;5.322;2022-08-21T00:39:10;16.70;99.90
11818;DHT22;5966;52.402;5.322;2022-08-21T00:41:39;16.70;99.90
11818;DHT22;5966;52.402;5.322;2022-08-21T00:44:10;16.70;99.90
11818;DHT22;5966;52.402;5.322;2022-08-21T00:46:39;16.70;99.90
11818;DHT22;5966;52.402;5.322;2022-08-21T00:49:10;16.70;99.90
11818;DHT22;5966;52.402;5.322;2022-08-21T00:51:43;16.70;99.90
11818;DHT22;5966;52.402;5.322;2022-08-21T00:54:15;16.70;99.90
11818;DHT22;5966;52.402;5.322;2022-08-21T00:56:46;16.60;99.90
11818;DHT22;5966;52.402;5.322;2022-08-21T00:59:17;16.60;99.90
11818;DHT22;5966;52.402;5.322;2022-08-21T01:01:46;16.60;99.90
11818;DHT22;5966;52.402;5.322;2022-08-21T01:04:16;16.60;99.90
11818;DHT22;5966;52.402;5.322;2022-08-21T01:06:44;16.60;99.90
11818;DHT22;5966;52.402;5.322;2022-08-21T01:09:12;16.60;99.90
11818;DHT22;5966;52.402;5.322;2022-08-21T01:11:41;16.60;99.90
11818;DHT22;5966;52.402;5.322;2022-08-21T01:14:10;16.60;99.90
11818;DHT22;5966;52.402;5.322;2022-08-21T01:16:40;16.60;99.90
11818;DHT22;5966;52.402;5.322;2022-08-21T01:19:10;16.60;99.90
11818;DHT22;5966;52.402;5.322;2022-08-21T01:21:40;16.60;99.90
11818;DHT22;5966;52.402;5.322;2022-08-21T01:24:10;16.60;99.90
11818;DHT22;5966;52.402;5.322;2022-08-21T01:26:39;16.50;99.90
11818;DHT22;5966;52.402;5.322;2022-08-21T01:29:12;16.50;99.90
11818;DHT22;5966;52.402;5.322;2022-08-21T01:31:41;16.50;99.90
11818;DHT22;5966;52.402;5.322;2022-08-21T01:34:09;16.50;99.90
11818;DHT22;5966;52.402;5.322;2022-08-21T01:36:38;16.50;99.90
11818;DHT22;5966;52.402;5.322;2022-08-21T01:39:07;16.50;99.90
11818;DHT22;5966;52.402;5.322;2022-08-21T01:41:35;16.50;99.90
11818;DHT22;5966;52.402;5.322;2022-08-21T01:44:03;16.50;99.90
11818;DHT22;5966;52.402;5.322;2022-08-21T01:46:31;16.50;99.90
11818;DHT22;5966;52.402;5.322;2022-08-21T01:49:00;16.50;99.90
11818;DHT22;5966;52.402;5.322;2022-08-21T01:51:28;16.50;99.90
11818;DHT22;5966;52.402;5.322;2022-08-21T01:53:56;16.50;99.90
11818;DHT22;5966;52.402;5.322;2022-08-21T01:56:26;16.60;99.90
11818;DHT22;5966;52.402;5.322;2022-08-21T01:58:55;16.60;99.90
11818;DHT22;5966;52.402;5.322;2022-08-21T02:01:23;16.60;99.90
11818;DHT22;5966;52.402;5.322;2022-08-21T02:03:51;16.60;99.90
11818;DHT22;5966;52.402;5.322;2022-08-21T02:06:19;16.60;99.90
11818;DHT22;5966;52.402;5.322;2022-08-21T02:08:47;16.50;99.90
11818;DHT22;5966;52.402;5.322;2022-08-21T02:11:17;16.50;99.90
11818;DHT22;5966;52.402;5.322;2022-08-21T02:13:46;16.50;99.90
11818;DHT22;5966;52.402;5.322;2022-08-21T02:16:14;16.50;99.90
11818;DHT22;5966;52.402;5.322;2022-08-21T02:18:45;16.50;99.90
11818;DHT22;5966;52.402;5.322;2022-08-21T02:21:13;16.40;99.90
11818;DHT22;5966;52.402;5.322;2022-08-21T02:23:41;16.40;99.90
11818;DHT22;5966;52.402;5.322;2022-08-21T02:26:09;16.40;99.90
11818;DHT22;5966;52.402;5.322;2022-08-21T02:28:37;16.40;99.90
11818;DHT22;5966;52.402;5.322;2022-08-21T02:31:07;16.40;99.90
11818;DHT22;5966;52.402;5.322;2022-08-21T02:33:35;16.40;99.90
11818;DHT22;5966;52.402;5.322;2022-08-21T02:36:03;16.40;99.90
11818;DHT22;5966;52.402;5.322;2022-08-21T02:38:33;16.40;99.90
11818;DHT22;5966;52.402;5.322;2022-08-21T02:41:05;16.40;99.90
11818;DHT22;5966;52.402;5.322;2022-08-21T02:46:08;16.40;99.90
11818;DHT22;5966;52.402;5.322;2022-08-21T02:48:40;16.40;99.90
11818;DHT22;5966;52.402;5.322;2022-08-21T02:51:11;16.40;99.90
11818;DHT22;5966;52.402;5.322;2022-08-21T02:53:39;16.40;99.90
11818;DHT22;5966;52.402;5.322;2022-08-21T02:56:11;16.40;99.90
11818;DHT22;5966;52.402;5.322;2022-08-21T02:58:42;16.30;99.90
11818;DHT22;5966;52.402;5.322;2022-08-21T03:01:12;16.30;99.90
11818;DHT22;5966;52.402;5.322;2022-08-21T03:03:43;16.30;99.90
11818;DHT22;5966;52.402;5.322;2022-08-21T03:06:14;16.20;99.90
11818;DHT22;5966;52.402;5.322;2022-08-21T03:08:43;16.20;99.90
11818;DHT22;5966;52.402;5.322;2022-08-21T03:11:13;16.20;99.90
11818;DHT22;5966;52.402;5.322;2022-08-21T03:13:42;16.20;99.90
11818;DHT22;5966;52.402;5.322;2022-08-21T03:16:11;16.20;99.90
11818;DHT22;5966;52.402;5.322;2022-08-21T03:18:39;16.20;99.90
11818;DHT22;5966;52.402;5.322;2022-08-21T03:21:07;16.10;99.90
11818;DHT22;5966;52.402;5.322;2022-08-21T03:23:35;16.10;99.90
11818;DHT22;5966;52.402;5.322;2022-08-21T03:26:06;16.10;99.90
11818;DHT22;5966;52.402;5.322;2022-08-21T03:28:36;16.20;99.90
11818;DHT22;5966;52.402;5.322;2022-08-21T03:31:04;16.20;99.90
11818;DHT22;5966;52.402;5.322;2022-08-21T03:33:34;16.20;99.90
11818;DHT22;5966;52.402;5.322;2022-08-21T03:36:05;16.20;99.90
11818;DHT22;5966;52.402;5.322;2022-08-21T03:38:34;16.10;99.90
11818;DHT22;5966;52.402;5.322;2022-08-21T03:41:03;16.10;99.90
11818;DHT22;5966;52.402;5.322;2022-08-21T03:43:33;16.10;99.90
11818;DHT22;5966;52.402;5.322;2022-08-21T03:46:02;16.10;99.90
11818;DHT22;5966;52.402;5.322;2022-08-21T03:48:31;16.10;99.90
11818;DHT22;5966;52.402;5.322;2022-08-21T03:51:01;16.10;99.90
11818;DHT22;5966;52.402;5.322;2022-08-21T03:53:29;16.10;99.90
11818;DHT22;5966;52.402;5.322;2022-08-21T03:55:57;16.00;99.90
11818;DHT22;5966;52.402;5.322;2022-08-21T03:58:26;16.00;99.90
11818;DHT22;5966;52.402;5.322;2022-08-21T04:00:56;16.00;99.90
11818;DHT22;5966;52.402;5.322;2022-08-21T04:03:25;16.00;99.90
11818;DHT22;5966;52.402;5.322;2022-08-21T04:05:54;15.90;99.90
11818;DHT22;5966;52.402;5.322;2022-08-21T04:08:23;15.90;99.90
11818;DHT22;5966;52.402;5.322;2022-08-21T04:10:53;15.90;99.90
11818;DHT22;5966;52.402;5.322;2022-08-21T04:13:21;15.80;99.90
11818;DHT22;5966;52.402;5.322;2022-08-21T04:15:49;15.80;99.90
11818;DHT22;5966;52.402;5.322;2022-08-21T04:18:18;15.80;99.90
11818;DHT22;5966;52.402;5.322;2022-08-21T04:20:48;15.80;99.90
11818;DHT22;5966;52.402;5.322;2022-08-21T04:23:17;15.80;99.90
11818;DHT22;5966;52.402;5.322;2022-08-21T04:25:53;15.70;99.90
11818;DHT22;5966;52.402;5.322;2022-08-21T04:28:21;15.70;99.90
11818;DHT22;5966;52.402;5.322;2022-08-21T04:30:56;15.70;99.90
11818;DHT22;5966;52.402;5.322;2022-08-21T04:33:24;15.70;99.90
11818;DHT22;5966;52.402;5.322;2022-08-21T04:35:52;15.70;99.90
11818;DHT22;5966;52.402;5.322;2022-08-21T04:38:21;15.70;99.90
11818;DHT22;5966;52.402;5.322;2022-08-21T04:40:51;15.60;99.90
11818;DHT22;5966;52.402;5.322;2022-08-21T04:43:20;15.70;99.90
11818;DHT22;5966;52.402;5.322;2022-08-21T04:45:51;15.70;99.90
11818;DHT22;5966;52.402;5.322;2022-08-21T04:48:21;15.70;99.90
11818;DHT22;5966;52.402;5.322;2022-08-21T04:50:55;15.70;99.90
11818;DHT22;5966;52.402;5.322;2022-08-21T04:53:27;15.70;99.90
11818;DHT22;5966;52.402;5.322;2022-08-21T04:56:02;15.60;99.90
11818;DHT22;5966;52.402;5.322;2022-08-21T04:58:32;15.70;99.90
11818;DHT22;5966;52.402;5.322;2022-08-21T05:01:00;15.70;99.90
11818;DHT22;5966;52.402;5.322;2022-08-21T05:03:29;15.60;99.90
11818;DHT22;5966;52.402;5.322;2022-08-21T05:05:58;15.60;99.90
11818;DHT22;5966;52.402;5.322;2022-08-21T05:08:27;15.60;99.90
11818;DHT22;5966;52.402;5.322;2022-08-21T05:10:55;15.60;99.90
11818;DHT22;5966;52.402;5.322;2022-08-21T05:13:27;15.60;99.90
11818;DHT22;5966;52.402;5.322;2022-08-21T05:15:56;15.50;99.90
11818;DHT22;5966;52.402;5.322;2022-08-21T05:18:25;15.50;99.90
11818;DHT22;5966;52.402;5.322;2022-08-21T05:20:52;15.60;99.90
11818;DHT22;5966;52.402;5.322;2022-08-21T05:23:20;15.60;99.90
11818;DHT22;5966;52.402;5.322;2022-08-21T05:25:49;15.60;99.90
11818;DHT22;5966;52.402;5.322;2022-08-21T05:28:17;15.60;99.90
11818;DHT22;5966;52.402;5.322;2022-08-21T05:30:47;15.70;99.90
11818;DHT22;5966;52.402;5.322;2022-08-21T05:33:15;15.80;99.90
11818;DHT22;5966;52.402;5.322;2022-08-21T05:35:43;15.80;99.90
11818;DHT22;5966;52.402;5.322;2022-08-21T05:38:12;15.90;99.90
11818;DHT22;5966;52.402;5.322;2022-08-21T05:40:44;16.00;99.90
11818;DHT22;5966;52.402;5.322;2022-08-21T05:43:12;16.10;99.90
11818;DHT22;5966;52.402;5.322;2022-08-21T05:45:41;16.10;99.90
11818;DHT22;5966;52.402;5.322;2022-08-21T05:48:14;16.20;99.90
11818;DHT22;5966;52.402;5.322;2022-08-21T05:50:44;16.30;99.90
11818;DHT22;5966;52.402;5.322;2022-08-21T05:53:13;16.40;99.90
11818;DHT22;5966;52.402;5.322;2022-08-21T05:55:43;16.50;99.90
11818;DHT22;5966;52.402;5.322;2022-08-21T05:58:14;16.50;99.90
11818;DHT22;5966;52.402;5.322;2022-08-21T06:00:43;16.60;99.90
11818;DHT22;5966;52.402;5.322;2022-08-21T06:03:15;16.60;99.90
11818;DHT22;5966;52.402;5.322;2022-08-21T06:05:43;16.70;99.90
11818;DHT22;5966;52.402;5.322;2022-08-21T06:08:12;16.80;99.90
11818;DHT22;5966;52.402;5.322;2022-08-21T06:10:40;17.00;99.90
11818;DHT22;5966;52.402;5.322;2022-08-21T06:13:09;17.10;99.90
11818;DHT22;5966;52.402;5.322;2022-08-21T06:15:38;17.20;99.90
11818;DHT22;5966;52.402;5.322;2022-08-21T06:18:06;17.30;99.90
11818;DHT22;5966;52.402;5.322;2022-08-21T06:20:35;17.40;99.90
11818;DHT22;5966;52.402;5.322;2022-08-21T06:23:04;17.50;99.90
11818;DHT22;5966;52.402;5.322;2022-08-21T06:25:33;17.50;99.90
11818;DHT22;5966;52.402;5.322;2022-08-21T06:28:01;17.60;99.90
11818;DHT22;5966;52.402;5.322;2022-08-21T06:30:31;17.70;99.90
11818;DHT22;5966;52.402;5.322;2022-08-21T06:33:06;17.70;99.90
11818;DHT22;5966;52.402;5.322;2022-08-21T06:35:35;17.80;99.90
11818;DHT22;5966;52.402;5.322;2022-08-21T06:38:07;17.90;99.90
11818;DHT22;5966;52.402;5.322;2022-08-21T06:40:35;18.00;99.90
11818;DHT22;5966;52.402;5.322;2022-08-21T06:43:15;18.00;99.90
11818;DHT22;5966;52.402;5.322;2022-08-21T06:45:44;18.10;99.90
11818;DHT22;5966;52.402;5.322;2022-08-21T06:48:13;18.10;99.90
11818;DHT22;5966;52.402;5.322;2022-08-21T06:50:46;18.20;99.90
11818;DHT22;5966;52.402;5.322;2022-08-21T06:53:16;18.30;99.90
11818;DHT22;5966;52.402;5.322;2022-08-21T06:55:44;18.40;99.90
11818;DHT22;5966;52.402;5.322;2022-08-21T06:58:12;18.50;99.90
11818;DHT22;5966;52.402;5.322;2022-08-21T07:00:43;18.50;99.90
11818;DHT22;5966;52.402;5.322;2022-08-21T07:03:17;18.60;99.90
11818;DHT22;5966;52.402;5.322;2022-08-21T07:05:47;18.60;99.90
11818;DHT22;5966;52.402;5.322;2022-08-21T07:08:15;18.60;99.90
11818;DHT22;5966;52.402;5.322;2022-08-21T07:10:44;18.70;99.90
11818;DHT22;5966;52.402;5.322;2022-08-21T07:13:13;18.80;99.90
11818;DHT22;5966;52.402;5.322;2022-08-21T07:15:41;18.80;99.90
11818;DHT22;5966;52.402;5.322;2022-08-21T07:18:09;18.90;99.90
11818;DHT22;5966;52.402;5.322;2022-08-21T07:20:37;18.90;99.90
11818;DHT22;5966;52.402;5.322;2022-08-21T07:23:08;19.00;99.90
11818;DHT22;5966;52.402;5.322;2022-08-21T07:25:36;19.10;99.90
11818;DHT22;5966;52.402;5.322;2022-08-21T07:28:05;19.10;99.90
11818;DHT22;5966;52.402;5.322;2022-08-21T07:30:32;19.20;99.90
11818;DHT22;5966;52.402;5.322;2022-08-21T07:33:01;19.30;99.90
11818;DHT22;5966;52.402;5.322;2022-08-21T07:35:28;19.40;99.90
11818;DHT22;5966;52.402;5.322;2022-08-21T07:37:57;19.40;99.90
11818;DHT22;5966;52.402;5.322;2022-08-21T07:40:27;19.40;99.90
11818;DHT22;5966;52.402;5.322;2022-08-21T07:42:55;19.40;99.90
11818;DHT22;5966;52.402;5.322;2022-08-21T07:45:23;19.50;99.90
11818;DHT22;5966;52.402;5.322;2022-08-21T07:47:52;19.60;99.90
11818;DHT22;5966;52.402;5.322;2022-08-21T07:50:23;19.70;99.90
11818;DHT22;5966;52.402;5.322;2022-08-21T07:52:51;19.70;99.90
11818;DHT22;5966;52.402;5.322;2022-08-21T07:55:20;19.80;99.90
11818;DHT22;5966;52.402;5.322;2022-08-21T07:57:50;19.90;99.90
11818;DHT22;5966;52.402;5.322;2022-08-21T08:00:21;20.00;99.90
11818;DHT22;5966;52.402;5.322;2022-08-21T08:02:50;19.90;99.90
11818;DHT22;5966;52.402;5.322;2022-08-21T08:05:21;19.90;99.90
11818;DHT22;5966;52.402;5.322;2022-08-21T08:07:49;20.00;99.90
11818;DHT22;5966;52.402;5.322;2022-08-21T08:10:18;20.00;99.90
11818;DHT22;5966;52.402;5.322;2022-08-21T08:12:46;20.00;99.90
11818;DHT22;5966;52.402;5.322;2022-08-21T08:15:18;20.00;99.90
11818;DHT22;5966;52.402;5.322;2022-08-21T08:17:47;20.10;99.90
11818;DHT22;5966;52.402;5.322;2022-08-21T08:20:17;20.10;99.90
11818;DHT22;5966;52.402;5.322;2022-08-21T08:22:46;20.20;99.90
11818;DHT22;5966;52.402;5.322;2022-08-21T08:25:26;20.20;99.90
11818;DHT22;5966;52.402;5.322;2022-08-21T08:28:02;20.20;99.90
11818;DHT22;5966;52.402;5.322;2022-08-21T08:30:44;20.20;99.90
11818;DHT22;5966;52.402;5.322;2022-08-21T08:33:12;20.20;99.90
11818;DHT22;5966;52.402;5.322;2022-08-21T08:35:41;20.30;99.90
11818;DHT22;5966;52.402;5.322;2022-08-21T08:38:10;20.30;99.90
11818;DHT22;5966;52.402;5.322;2022-08-21T08:40:42;20.30;99.90
11818;DHT22;5966;52.402;5.322;2022-08-21T08:43:11;20.20;99.90
11818;DHT22;5966;52.402;5.322;2022-08-21T08:45:45;20.20;99.90
11818;DHT22;5966;52.402;5.322;2022-08-21T08:48:21;20.20;99.90
11818;DHT22;5966;52.402;5.322;2022-08-21T08:50:57;20.20;99.90
11818;DHT22;5966;52.402;5.322;2022-08-21T08:53:33;20.30;99.90
11818;DHT22;5966;52.402;5.322;2022-08-21T08:56:12;20.30;99.90
11818;DHT22;5966;52.402;5.322;2022-08-21T08:59:08;20.30;99.90
11818;DHT22;5966;52.402;5.322;2022-08-21T09:01:52;20.40;99.90
11818;DHT22;5966;52.402;5.322;2022-08-21T09:04:25;20.50;99.90
11818;DHT22;5966;52.402;5.322;2022-08-21T09:07:07;20.60;99.90
11818;DHT22;5966;52.402;5.322;2022-08-21T09:10:02;20.60;99.90
11818;DHT22;5966;52.402;5.322;2022-08-21T09:12:42;20.80;99.90
11818;DHT22;5966;52.402;5.322;2022-08-21T09:15:22;20.90;99.90
11818;DHT22;5966;52.402;5.322;2022-08-21T09:21:02;21.00;99.90
11818;DHT22;5966;52.402;5.322;2022-08-21T09:23:40;21.00;99.90
11818;DHT22;5966;52.402;5.322;2022-08-21T09:26:13;21.00;99.90
11818;DHT22;5966;52.402;5.322;2022-08-21T09:28:44;21.10;99.90
11818;DHT22;5966;52.402;5.322;2022-08-21T09:31:22;21.20;99.90
11818;DHT22;5966;52.402;5.322;2022-08-21T09:34:02;21.20;99.90
11818;DHT22;5966;52.402;5.322;2022-08-21T09:36:40;21.30;99.90
11818;DHT22;5966;52.402;5.322;2022-08-21T09:39:25;21.20;99.90
11818;DHT22;5966;52.402;5.322;2022-08-21T09:41:59;21.20;99.90
11818;DHT22;5966;52.402;5.322;2022-08-21T09:44:28;21.20;99.90
11818;DHT22;5966;52.402;5.322;2022-08-21T09:46:59;21.20;99.90
11818;DHT22;5966;52.402;5.322;2022-08-21T09:49:33;21.30;99.90
11818;DHT22;5966;52.402;5.322;2022-08-21T09:52:06;21.50;99.90
11818;DHT22;5966;52.402;5.322;2022-08-21T09:55:02;21.50;99.90
11818;DHT22;5966;52.402;5.322;2022-08-21T09:58:35;21.50;99.90
11818;DHT22;5966;52.402;5.322;2022-08-21T10:01:06;21.40;99.90
11818;DHT22;5966;52.402;5.322;2022-08-21T10:04:22;21.40;99.90
11818;DHT22;5966;52.402;5.322;2022-08-21T10:06:51;21.40;99.90
11818;DHT22;5966;52.402;5.322;2022-08-21T10:09:23;21.40;99.90
11818;DHT22;5966;52.402;5.322;2022-08-21T10:11:58;21.50;99.90
11818;DHT22;5966;52.402;5.322;2022-08-21T10:14:47;21.50;99.90
11818;DHT22;5966;52.402;5.322;2022-08-21T10:17:26;21.60;99.90
11818;DHT22;5966;52.402;5.322;2022-08-21T10:20:00;21.60;99.90
11818;DHT22;5966;52.402;5.322;2022-08-21T10:22:38;21.60;99.90
11818;DHT22;5966;52.402;5.322;2022-08-21T10:25:16;21.60;99.90
11818;DHT22;5966;52.402;5.322;2022-08-21T10:27:54;21.60;99.90
11818;DHT22;5966;52.402;5.322;2022-08-21T10:30:34;21.60;99.90
11818;DHT22;5966;52.402;5.322;2022-08-21T10:33:25;21.70;99.90
11818;DHT22;5966;52.402;5.322;2022-08-21T10:36:02;21.80;99.90
11818;DHT22;5966;52.402;5.322;2022-08-21T10:38:49;21.90;99.90
11818;DHT22;5966;52.402;5.322;2022-08-21T10:41:50;22.00;99.90
11818;DHT22;5966;52.402;5.322;2022-08-21T10:44:29;22.00;99.90
11818;DHT22;5966;52.402;5.322;2022-08-21T10:47:02;22.00;99.90
11818;DHT22;5966;52.402;5.322;2022-08-21T10:49:39;22.00;99.90
11818;DHT22;5966;52.402;5.322;2022-08-21T10:52:32;22.00;99.90
11818;DHT22;5966;52.402;5.322;2022-08-21T10:55:08;22.10;99.90
11818;DHT22;5966;52.402;5.322;2022-08-21T10:57:41;22.10;99.90
11818;DHT22;5966;52.402;5.322;2022-08-21T11:00:15;22.20;99.90
11818;DHT22;5966;52.402;5.322;2022-08-21T11:02:47;22.30;99.90
11818;DHT22;5966;52.402;5.322;2022-08-21T11:05:20;22.30;99.90
11818;DHT22;5966;52.402;5.322;2022-08-21T11:07:55;22.40;99.90
11818;DHT22;5966;52.402;5.322;2022-08-21T11:10:31;22.40;99.90
11818;DHT22;5966;52.402;5.322;2022-08-21T11:13:03;22.40;99.90
11818;DHT22;5966;52.402;5.322;2022-08-21T11:15:43;22.40;99.90
11818;DHT22;5966;52.402;5.322;2022-08-21T11:18:19;22.40;99.90
11818;DHT22;5966;52.402;5.322;2022-08-21T11:20:56;22.40;99.90
11818;DHT22;5966;52.402;5.322;2022-08-21T11:23:33;22.50;99.90
11818;DHT22;5966;52.402;5.322;2022-08-21T11:26:09;22.60;99.90
11818;DHT22;5966;52.402;5.322;2022-08-21T11:28:45;22.80;99.90
11818;DHT22;5966;52.402;5.322;2022-08-21T11:31:27;22.90;99.90
11818;DHT22;5966;52.402;5.322;2022-08-21T11:34:09;23.10;99.90
11818;DHT22;5966;52.402;5.322;2022-08-21T11:36:47;23.30;99.90
11818;DHT22;5966;52.402;5.322;2022-08-21T11:39:25;23.50;99.90
11818;DHT22;5966;52.402;5.322;2022-08-21T11:42:04;23.50;99.90
11818;DHT22;5966;52.402;5.322;2022-08-21T11:44:43;23.30;99.90
11818;DHT22;5966;52.402;5.322;2022-08-21T11:47:19;23.10;99.90
11818;DHT22;5966;52.402;5.322;2022-08-21T11:50:00;22.80;99.90
11818;DHT22;5966;52.402;5.322;2022-08-21T11:52:40;22.60;99.90
11818;DHT22;5966;52.402;5.322;2022-08-21T11:55:15;22.40;99.90
11818;DHT22;5966;52.402;5.322;2022-08-21T11:57:53;22.30;99.90
11818;DHT22;5966;52.402;5.322;2022-08-21T12:00:25;22.40;99.90
11818;DHT22;5966;52.402;5.322;2022-08-21T12:02:59;22.60;99.90
11818;DHT22;5966;52.402;5.322;2022-08-21T12:05:36;22.70;99.90
11818;DHT22;5966;52.402;5.322;2022-08-21T12:08:11;22.80;99.90
11818;DHT22;5966;52.402;5.322;2022-08-21T12:10:41;22.80;99.90
11818;DHT22;5966;52.402;5.322;2022-08-21T12:13:22;22.90;99.90
11818;DHT22;5966;52.402;5.322;2022-08-21T12:16:10;23.00;99.90
11818;DHT22;5966;52.402;5.322;2022-08-21T12:18:40;23.00;99.90
11818;DHT22;5966;52.402;5.322;2022-08-21T12:21:21;23.00;99.90
11818;DHT22;5966;52.402;5.322;2022-08-21T12:24:00;23.00;99.90
11818;DHT22;5966;52.402;5.322;2022-08-21T12:26:30;23.00;99.90
11818;DHT22;5966;52.402;5.322;2022-08-21T12:29:07;23.00;99.90
11818;DHT22;5966;52.402;5.322;2022-08-21T12:31:52;23.10;99.90
11818;DHT22;5966;52.402;5.322;2022-08-21T12:34:23;23.10;99.90
11818;DHT22;5966;52.402;5.322;2022-08-21T12:36:56;23.00;99.90
11818;DHT22;5966;52.402;5.322;2022-08-21T12:39:27;23.00;99.90
11818;DHT22;5966;52.402;5.322;2022-08-21T12:41:59;22.90;99.90
11818;DHT22;5966;52.402;5.322;2022-08-21T12:44:34;22.80;99.90
11818;DHT22;5966;52.402;5.322;2022-08-21T12:47:06;22.70;99.90
11818;DHT22;5966;52.402;5.322;2022-08-21T12:49:47;22.70;99.90
11818;DHT22;5966;52.402;5.322;2022-08-21T12:52:22;22.70;99.90
11818;DHT22;5966;52.402;5.322;2022-08-21T12:54:51;22.80;99.90
11818;DHT22;5966;52.402;5.322;2022-08-21T12:57:21;22.80;99.90
11818;DHT22;5966;52.402;5.322;2022-08-21T12:59:55;22.80;99.90
11818;DHT22;5966;52.402;5.322;2022-08-21T13:02:26;22.90;99.90
11818;DHT22;5966;52.402;5.322;2022-08-21T13:04:56;22.90;99.90
11818;DHT22;5966;52.402;5.322;2022-08-21T13:07:27;23.00;99.90
11818;DHT22;5966;52.402;5.322;2022-08-21T13:10:00;23.00;99.90
11818;DHT22;5966;52.402;5.322;2022-08-21T13:12:30;23.00;99.90
11818;DHT22;5966;52.402;5.322;2022-08-21T13:15:03;23.10;99.90
11818;DHT22;5966;52.402;5.322;2022-08-21T13:17:36;23.10;99.90
11818;DHT22;5966;52.402;5.322;2022-08-21T13:20:08;23.10;99.90
11818;DHT22;5966;52.402;5.322;2022-08-21T13:22:41;23.10;99.90
11818;DHT22;5966;52.402;5.322;2022-08-21T13:25:11;23.10;99.90
11818;DHT22;5966;52.402;5.322;2022-08-21T13:27:39;23.00;99.90
11818;DHT22;5966;52.402;5.322;2022-08-21T13:30:11;23.00;99.90
11818;DHT22;5966;52.402;5.322;2022-08-21T13:32:43;23.00;99.90
11818;DHT22;5966;52.402;5.322;2022-08-21T13:35:15;22.90;99.90
11818;DHT22;5966;52.402;5.322;2022-08-21T13:37:45;22.80;99.90
11818;DHT22;5966;52.402;5.322;2022-08-21T13:40:17;22.80;99.90
11818;DHT22;5966;52.402;5.322;2022-08-21T13:42:47;22.80;99.90
11818;DHT22;5966;52.402;5.322;2022-08-21T13:45:23;22.70;99.90
11818;DHT22;5966;52.402;5.322;2022-08-21T13:47:52;22.70;99.90
11818;DHT22;5966;52.402;5.322;2022-08-21T13:50:23;22.60;99.90
11818;DHT22;5966;52.402;5.322;2022-08-21T13:53:00;22.50;99.90
11818;DHT22;5966;52.402;5.322;2022-08-21T13:55:38;22.50;99.90
11818;DHT22;5966;52.402;5.322;2022-08-21T13:58:07;22.50;99.90
11818;DHT22;5966;52.402;5.322;2022-08-21T14:00:44;22.60;99.90
11818;DHT22;5966;52.402;5.322;2022-08-21T14:03:26;22.70;99.90
11818;DHT22;5966;52.402;5.322;2022-08-21T14:05:54;22.70;99.90
11818;DHT22;5966;52.402;5.322;2022-08-21T14:08:29;22.70;99.90
11818;DHT22;5966;52.402;5.322;2022-08-21T14:10:59;22.70;99.90
11818;DHT22;5966;52.402;5.322;2022-08-21T14:13:34;22.70;99.90
11818;DHT22;5966;52.402;5.322;2022-08-21T14:16:14;22.70;99.90
11818;DHT22;5966;52.402;5.322;2022-08-21T14:18:45;22.60;99.90
11818;DHT22;5966;52.402;5.322;2022-08-21T14:21:13;22.60;99.90
11818;DHT22;5966;52.402;5.322;2022-08-21T14:23:59;22.50;99.90
11818;DHT22;5966;52.402;5.322;2022-08-21T14:26:29;22.50;99.90
11818;DHT22;5966;52.402;5.322;2022-08-21T14:28:59;22.50;99.90
11818;DHT22;5966;52.402;5.322;2022-08-21T14:31:37;22.40;99.90
11818;DHT22;5966;52.402;5.322;2022-08-21T14:34:11;22.40;99.90
11818;DHT22;5966;52.402;5.322;2022-08-21T14:36:46;22.40;99.90
11818;DHT22;5966;52.402;5.322;2022-08-21T14:39:14;22.40;99.90
11818;DHT22;5966;52.402;5.322;2022-08-21T14:41:43;22.40;99.90
11818;DHT22;5966;52.402;5.322;2022-08-21T14:44:12;22.40;99.90
11818;DHT22;5966;52.402;5.322;2022-08-21T14:46:42;22.40;99.90
11818;DHT22;5966;52.402;5.322;2022-08-21T14:49:21;22.40;99.90
11818;DHT22;5966;52.402;5.322;2022-08-21T14:51:49;22.40;99.90
11818;DHT22;5966;52.402;5.322;2022-08-21T14:54:23;22.40;99.90
11818;DHT22;5966;52.402;5.322;2022-08-21T14:56:59;22.40;99.90
11818;DHT22;5966;52.402;5.322;2022-08-21T14:59:27;22.40;99.90
11818;DHT22;5966;52.402;5.322;2022-08-21T15:01:57;22.40;99.90
11818;DHT22;5966;52.402;5.322;2022-08-21T15:04:25;22.40;99.90
11818;DHT22;5966;52.402;5.322;2022-08-21T15:06:53;22.40;99.90
11818;DHT22;5966;52.402;5.322;2022-08-21T15:09:21;22.40;99.90
11818;DHT22;5966;52.402;5.322;2022-08-21T15:11:49;22.30;99.90
11818;DHT22;5966;52.402;5.322;2022-08-21T15:14:25;22.30;99.90
11818;DHT22;5966;52.402;5.322;2022-08-21T15:16:53;22.40;99.90
11818;DHT22;5966;52.402;5.322;2022-08-21T15:19:24;22.40;99.90
11818;DHT22;5966;52.402;5.322;2022-08-21T15:21:53;22.40;99.90
11818;DHT22;5966;52.402;5.322;2022-08-21T15:24:20;22.50;99.90
11818;DHT22;5966;52.402;5.322;2022-08-21T15:26:49;22.50;99.90
11818;DHT22;5966;52.402;5.322;2022-08-21T15:29:17;22.40;99.90
11818;DHT22;5966;52.402;5.322;2022-08-21T15:31:54;22.40;99.90
11818;DHT22;5966;52.402;5.322;2022-08-21T15:34:25;22.30;99.90
11818;DHT22;5966;52.402;5.322;2022-08-21T15:36:54;22.30;99.90
11818;DHT22;5966;52.402;5.322;2022-08-21T15:39:23;22.30;99.90
11818;DHT22;5966;52.402;5.322;2022-08-21T15:42:03;22.30;99.90
11818;DHT22;5966;52.402;5.322;2022-08-21T15:44:37;22.20;99.90
11818;DHT22;5966;52.402;5.322;2022-08-21T15:47:06;22.20;99.90
11818;DHT22;5966;52.402;5.322;2022-08-21T15:49:36;22.20;99.90
11818;DHT22;5966;52.402;5.322;2022-08-21T15:52:04;22.20;99.90
11818;DHT22;5966;52.402;5.322;2022-08-21T15:54:32;22.20;99.90
11818;DHT22;5966;52.402;5.322;2022-08-21T15:57:00;22.20;99.90
11818;DHT22;5966;52.402;5.322;2022-08-21T15:59:31;22.20;99.90
11818;DHT22;5966;52.402;5.322;2022-08-21T16:02:00;22.20;99.90
11818;DHT22;5966;52.402;5.322;2022-08-21T16:04:28;22.20;99.90
11818;DHT22;5966;52.402;5.322;2022-08-21T16:06:57;22.20;99.90
11818;DHT22;5966;52.402;5.322;2022-08-21T16:09:34;22.20;99.90
11818;DHT22;5966;52.402;5.322;2022-08-21T16:12:03;22.10;99.90
11818;DHT22;5966;52.402;5.322;2022-08-21T16:14:32;22.10;99.90
11818;DHT22;5966;52.402;5.322;2022-08-21T16:17:04;22.10;99.90
11818;DHT22;5966;52.402;5.322;2022-08-21T16:19:32;22.10;99.90
11818;DHT22;5966;52.402;5.322;2022-08-21T16:22:02;22.00;99.90